LEZGLFBP

Guest
Details From LEZG - Zaragoza Ab
To LFBP - Pau Pyrenees
Flight Number -
Tags Generated
Created
Modified
Stats Distance 107 nm / 198 km
Max Altitude 0 ft / 0 m
Waypoints 2
Social Downloads 1
Likes 0
Share VATSIM

Download

Looking for another format? Having issues loading an existing format? Contact us
Advertisement - Login to hide

Notes

Generated

Route

LEZG LFBP

ID Type Via Altitude Latitude Longitude Leg Dist Tot Dist Heading (true) Name
O LEZG APT - 0 ft / 0 m 41.66906˚ -1.03983˚ - 0 nm - Zaragoza AB
O LFBP APT - 0 ft / 0 m 43.38766˚ -0.43326˚ 106 nm 106 nm 14° / 15° -

Altitude Profile

Advertisement - Login to hide

LEZG

Details ICAO LEZG (ZAZ)
Name Zaragoza AB
Region Spain
Timezone Europe/Madrid (UTC+2.0)
Stats Elevation 862 ft / 263 m (AMSL)
Location 41.667030° -1.043559°
Runways 2
Magnetic Variation 0.042° E

METAR

LEZG 261000Z 27009KT 9999 -RA FEW020 FEW030CB 18/15 Q1013

Decode

TAF

TAF AMD LEZG 260913Z 2609/2706 12009KT 9999 SCT060 TX27/2614Z TN16/2706Z TEMPO 2609/2610 BKN014 PROB40 TEMPO 2609/2702 TSRA FEW040CB BKN045

Decode

Departure Runways

ID Width Length Bearing (true) Bearing (mag) Surface Threshold Offset Overrun Length
12L 148 ft / 45 m 9,934 ft / 3,028 m 120.12° 120.08° Asphalt 0 ft / 0 m 984 ft / 300 m
12R 148 ft / 45 m 12,181 ft / 3,713 m 120.10° 120.06° Asphalt 0 ft / 0 m 984 ft / 300 m
30L 148 ft / 45 m 12,181 ft / 3,713 m 300.12° 300.08° Asphalt 0 ft / 0 m 984 ft / 300 m
30R 148 ft / 45 m 9,934 ft / 3,028 m 300.14° 300.10° Asphalt 0 ft / 0 m 607 ft / 185 m

LFBP

Details ICAO LFBP (PUF)
Name Pau Pyrenees
Region France
Timezone Europe/Paris (UTC+2.0)
Stats Elevation 616 ft / 188 m (AMSL)
Location 43.381078° -0.420752°
Runways 1
Magnetic Variation 0.148° E

METAR

LFBP 261000Z AUTO 30004KT 230V020 9999 FEW010 SCT014 BKN110 21/17 Q1012 TEMPO 32015G30KT 2000 TSRA SCT010 BKN030CB

Decode

TAF

TAF AMD LFBP 260808Z 2608/2706 VRB03KT 9999 BKN007 TEMPO 2608/2609 4000 BR OVC004 BECMG 2609/2611 BKN040 TEMPO 2609/2706 4000 SHRA BKN040TCU PROB40 TEMPO 2610/2621 32015G30KT 2000 TSRA SCT010 BKN030CB PROB40 TEMPO 2615/2621 32020G40KT 1000 TSRAGR BKN010 BKN030CB

Decode

Destination Runways

ID Width Length Bearing (true) Bearing (mag) Surface Threshold Offset Overrun Length
13 148 ft / 45 m 8,191 ft / 2,497 m 125.89° 125.74° Asphalt 0 ft / 0 m 0 ft / 0 m
31 148 ft / 45 m 8,191 ft / 2,497 m 305.90° 305.75° Asphalt 0 ft / 0 m 0 ft / 0 m

Approach Navaids

Runway Type Ident Frequency Range Bearing (true) Bearing (mag) Slope Elevation
31 Localiser PU 110.10 MHz 18 nm / 33 km 305.89° 305.74° - 576 ft / 176 m (AMSL)
31 Glidescope PU 110.10 MHz 10 nm / 19 km 305.90° 305.75° 3.00° 676 ft / 206 m (AMSL)
31 DME PU 110.10 MHz 18 nm / 33 km - - - 608 ft / 185 m (AMSL)